This is the latest recevied weather packets stored in our database for station/object HB9TQJ-6. If no packets are shown the sender has not sent any weather packets the latest 10 day(s).
| Time | Temp. | Humidity | Pressure | Rain* | Wind** | Luminosity | Snow |
|---|---|---|---|---|---|---|---|
| 1777635534 | 17.22° C | 45% | 1023.4 hPa | 0 mm | - | - | - |
| 1777629513 | 15° C | 44% | 1024.2 hPa | 0 mm | - | - | - |
| 1777628912 | 15° C | 43% | 1024.2 hPa | 0 mm | - | - | - |
| 1777626484 | 14.44° C | 43% | 1024.1 hPa | 0 mm | - | - | - |
| 1777625882 | 13.89° C | 43% | 1024.1 hPa | 0 mm | - | - | - |
| 1777624096 | 13.33° C | 42% | 1024.2 hPa | 0 mm | - | - | - |
| 1777623474 | 13.33° C | 42% | 1024.2 hPa | 0 mm | - | - | - |
| 1777621667 | 12.22° C | 42% | 1024.2 hPa | 0 mm | - | - | - |
| 1777613841 | 9.44° C | 43% | 1024.3 hPa | 0 mm | - | - | - |
| 1777612035 | 8.89° C | 43% | 1024.1 hPa | 0 mm | - | - | - |
| 1777608423 | 8.33° C | 43% | 1023.6 hPa | 0 mm | - | - | - |
| 1777604812 | 8.89° C | 42% | 1023.4 hPa | 0 mm | - | - | - |
| 1777602423 | 9.44° C | 42% | 1023.6 hPa | 0 mm | - | - | - |
| 1777601801 | 9.44° C | 41% | 1023.6 hPa | 0 mm | - | - | - |
| 1777597587 | 10° C | 40% | 1023.5 hPa | 0 mm | - | - | - |
| 1777595782 | 10° C | 40% | 1023.6 hPa | 0 mm | - | - | - |
| 1777592169 | 11.11° C | 36% | 1023.3 hPa | 0 mm | - | - | - |
| 1777590363 | 11.11° C | 36% | 1023.1 hPa | 0 mm | - | - | - |
| 1777589159 | 11.67° C | 36% | 1023.1 hPa | 0 mm | - | - | - |
| 1777578323 | 13.89° C | 33% | 1021.9 hPa | 0 mm | - | - | - |
| 1777575916 | 15° C | 31% | 1021.4 hPa | 0 mm | - | - | - |
| 1777575314 | 15.56° C | 31% | 1021.2 hPa | 0 mm | - | - | - |
| 1777570497 | 17.22° C | 31% | 1020.6 hPa | 0 mm | - | - | - |
| 1777566906 | 17.78° C | 33% | 1020.4 hPa | 0 mm | - | - | - |
| 1777565681 | 17.78° C | 34% | 1020.2 hPa | 0 mm | - | - | - |
* Rain latest hour (hover to see other rain measurements)
** Current wind speed in m/s (hover to see current wind gust speed)